createdAt,value
2019-02-14T00:01:12.018Z,8.30
2019-02-14T00:03:38.554Z,7.20
2019-02-14T00:06:05.128Z,7.80
2019-02-14T00:08:31.698Z,7.50
2019-02-14T00:10:58.461Z,8.33
2019-02-14T00:13:25.304Z,7.67
2019-02-14T00:15:51.846Z,11.27
2019-02-14T00:18:18.377Z,6.53
2019-02-14T00:20:45.214Z,8.40
2019-02-14T00:23:11.748Z,7.97
2019-02-14T00:25:38.594Z,7.73
2019-02-14T00:28:05.127Z,8.57
2019-02-14T00:30:31.660Z,8.50
2019-02-14T00:32:58.501Z,8.30
2019-02-14T00:35:25.465Z,7.63
2019-02-14T00:37:52.519Z,6.70
2019-02-14T00:40:19.033Z,8.20
2019-02-14T00:42:45.561Z,7.67
2019-02-14T00:45:12.402Z,7.17
2019-02-14T00:47:39.247Z,8.37
2019-02-14T00:50:05.779Z,7.13
2019-02-14T00:52:32.629Z,7.17
2019-02-14T00:54:59.159Z,9.50
2019-02-14T00:57:26.304Z,6.93
2019-02-14T00:59:52.839Z,6.67
2019-02-14T01:02:19.372Z,9.57
2019-02-14T01:04:45.908Z,7.57
2019-02-14T01:07:12.748Z,10.47
2019-02-14T01:09:39.591Z,9.10
2019-02-14T01:12:06.227Z,8.27
2019-02-14T01:14:32.743Z,8.27
2019-02-14T01:16:59.282Z,5.87
2019-02-14T01:19:26.063Z,9.40
2019-02-14T01:21:52.880Z,11.33
2019-02-14T01:24:19.412Z,7.93
2019-02-14T01:26:46.047Z,9.27
2019-02-14T01:29:12.787Z,9.10
2019-02-14T01:31:39.334Z,8.73
2019-02-14T01:34:06.166Z,8.00
2019-02-14T01:36:32.702Z,8.60
2019-02-14T01:38:59.544Z,6.67
2019-02-14T01:41:26.075Z,8.13
2019-02-14T01:43:52.714Z,8.23
2019-02-14T01:46:19.451Z,7.13
2019-02-14T01:48:45.988Z,7.50
2019-02-14T01:51:12.533Z,7.97
2019-02-14T01:53:39.366Z,8.23
2019-02-14T01:56:05.899Z,8.43
2019-02-14T01:58:32.746Z,7.07
2019-02-14T02:00:59.271Z,8.43
2019-02-14T02:03:25.812Z,8.87
2019-02-14T02:05:52.340Z,9.73
2019-02-14T02:08:18.885Z,9.57
2019-02-14T02:10:45.717Z,12.77
2019-02-14T02:13:12.255Z,11.60
2019-02-14T02:15:38.788Z,10.63
2019-02-14T02:18:05.666Z,10.33
2019-02-14T02:20:33.536Z,11.07
2019-02-14T02:23:00.409Z,8.57
2019-02-14T02:25:27.084Z,9.40
2019-02-14T02:27:53.626Z,9.13
2019-02-14T02:30:20.145Z,9.37
2019-02-14T02:32:46.984Z,8.20
2019-02-14T02:35:13.829Z,8.67
2019-02-14T02:37:40.673Z,7.33
2019-02-14T02:40:07.205Z,8.27
2019-02-14T02:42:34.050Z,8.33
2019-02-14T02:45:00.581Z,8.10
2019-02-14T02:47:27.432Z,8.67
2019-02-14T02:49:53.958Z,8.73
2019-02-14T02:52:20.493Z,10.07
2019-02-14T02:54:47.333Z,8.23
2019-02-14T02:57:13.875Z,16.73
2019-02-14T02:59:40.713Z,8.50
2019-02-14T03:02:07.254Z,10.30
2019-02-14T03:04:34.084Z,8.90
2019-02-14T03:07:00.600Z,7.53
2019-02-14T03:09:27.160Z,7.43
2019-02-14T03:11:54.916Z,10.90
2019-02-14T03:14:21.643Z,7.87
2019-02-14T03:16:48.291Z,8.33
2019-02-14T03:19:14.830Z,7.30
2019-02-14T03:21:41.361Z,8.23
2019-02-14T03:24:08.203Z,8.10
2019-02-14T03:26:35.044Z,9.30
2019-02-14T03:29:01.580Z,10.57
2019-02-14T03:31:28.125Z,7.83
2019-02-14T03:33:54.652Z,7.17
2019-02-14T03:36:21.489Z,8.20
2019-02-14T03:38:48.026Z,9.13
2019-02-14T03:41:14.561Z,9.90
2019-02-14T03:43:41.096Z,8.87
2019-02-14T03:46:07.628Z,9.03
2019-02-14T03:48:34.164Z,8.53
2019-02-14T03:51:00.701Z,8.13
2019-02-14T03:53:27.230Z,9.33
2019-02-14T03:55:54.073Z,8.60
2019-02-14T03:58:20.612Z,9.03
2019-02-14T04:00:47.462Z,9.77
2019-02-14T04:03:13.983Z,7.87
2019-02-14T04:05:40.824Z,8.73
2019-02-14T04:08:07.360Z,9.13
2019-02-14T04:10:33.895Z,7.97
2019-02-14T04:13:00.735Z,7.17
2019-02-14T04:15:27.275Z,7.07
2019-02-14T04:17:54.116Z,7.93
2019-02-14T04:20:20.649Z,8.80
2019-02-14T04:22:47.271Z,7.07
2019-02-14T04:25:14.023Z,6.83
2019-02-14T04:27:40.562Z,7.47
2019-02-14T04:30:07.092Z,8.83
2019-02-14T04:32:33.934Z,8.23
2019-02-14T04:35:00.474Z,8.30
2019-02-14T04:37:27.309Z,7.17
2019-02-14T04:39:53.844Z,6.93
2019-02-14T04:42:20.381Z,7.00
2019-02-14T04:44:46.915Z,11.37
2019-02-14T04:47:13.449Z,10.03
2019-02-14T04:49:41.965Z,7.43
2019-02-14T04:52:08.359Z,8.40
2019-02-14T04:54:34.895Z,6.60
2019-02-14T04:57:01.743Z,6.40
2019-02-14T04:59:28.271Z,6.53
2019-02-14T05:01:55.113Z,7.40
2019-02-14T05:04:21.650Z,7.23
2019-02-14T05:06:48.181Z,6.60
2019-02-14T05:09:14.724Z,6.93
2019-02-14T05:11:41.250Z,6.30
2019-02-14T05:14:07.786Z,8.87
2019-02-14T05:16:34.326Z,7.03
2019-02-14T05:19:00.857Z,6.20
2019-02-14T05:21:27.388Z,7.27
2019-02-14T05:23:53.923Z,5.87
2019-02-14T05:26:20.463Z,6.73
2019-02-14T05:28:47.000Z,10.20
2019-02-14T05:31:13.833Z,7.07
2019-02-14T05:33:40.371Z,6.70
2019-02-14T05:36:06.905Z,7.83
2019-02-14T05:38:33.447Z,6.63
2019-02-14T05:40:59.971Z,6.57
2019-02-14T05:43:26.813Z,7.60
2019-02-14T05:45:53.353Z,6.03
2019-02-14T05:48:20.192Z,8.97
2019-02-14T05:50:46.752Z,7.20
2019-02-14T05:53:13.259Z,6.30
2019-02-14T05:55:40.105Z,10.97
2019-02-14T05:58:06.634Z,6.07
2019-02-14T06:00:33.171Z,8.87
2019-02-14T06:02:59.706Z,6.03
2019-02-14T06:05:26.239Z,14.43
2019-02-14T06:07:52.775Z,12.47
2019-02-14T06:10:19.310Z,22.00
2019-02-14T06:12:45.842Z,22.87
2019-02-14T06:15:12.377Z,15.63
2019-02-14T06:17:38.914Z,19.10
2019-02-14T06:20:05.546Z,16.87
2019-02-14T06:22:32.287Z,14.77
2019-02-14T06:24:58.820Z,17.70
2019-02-14T06:27:25.360Z,16.33
2019-02-14T06:29:52.197Z,12.90
2019-02-14T06:32:18.733Z,17.17
2019-02-14T06:34:45.265Z,11.97
2019-02-14T06:37:11.804Z,12.07
2019-02-14T06:39:38.335Z,15.03
2019-02-14T06:42:04.973Z,16.10
2019-02-14T06:44:31.732Z,17.63
2019-02-14T06:46:58.252Z,15.63
2019-02-14T06:49:24.781Z,15.07
2019-02-14T06:51:51.316Z,16.70
2019-02-14T06:54:17.851Z,19.27
2019-02-14T06:56:44.385Z,13.10
2019-02-14T06:59:11.226Z,13.23
2019-02-14T07:01:37.763Z,15.80
2019-02-14T07:04:04.602Z,11.50
2019-02-14T07:06:31.140Z,12.27
2019-02-14T07:08:57.671Z,13.53
2019-02-14T07:11:24.514Z,10.97
2019-02-14T07:13:51.354Z,12.50
2019-02-14T07:16:17.889Z,14.57
2019-02-14T07:18:44.730Z,11.33
2019-02-14T07:21:11.574Z,12.43
2019-02-14T07:23:38.108Z,13.53
2019-02-14T07:26:04.641Z,13.80
2019-02-14T07:28:31.481Z,10.00
2019-02-14T07:30:58.018Z,9.27
2019-02-14T07:33:24.549Z,9.63
2019-02-14T07:35:51.392Z,12.07
2019-02-14T07:38:17.928Z,11.97
2019-02-14T07:40:44.464Z,10.63
2019-02-14T07:43:11.306Z,10.33
2019-02-14T07:45:37.840Z,10.97
2019-02-14T07:48:04.681Z,8.27
2019-02-14T07:50:31.525Z,12.80
2019-02-14T07:52:58.089Z,8.27
2019-02-14T07:55:24.591Z,10.87
2019-02-14T07:57:51.228Z,8.10
2019-02-14T08:00:17.975Z,7.80
2019-02-14T08:02:44.502Z,8.53
2019-02-14T08:05:11.035Z,9.97
2019-02-14T08:07:37.570Z,8.47
2019-02-14T08:10:04.415Z,9.83
2019-02-14T08:12:31.253Z,7.67
2019-02-14T08:14:57.788Z,10.53
2019-02-14T08:17:24.321Z,7.90
2019-02-14T08:19:50.858Z,8.70
2019-02-14T08:22:17.398Z,7.27
2019-02-14T08:24:43.928Z,10.70
2019-02-14T08:27:10.564Z,7.40
2019-02-14T08:29:37.187Z,9.63
2019-02-14T08:32:03.835Z,7.83
2019-02-14T08:34:30.677Z,11.03
2019-02-14T08:36:57.215Z,10.63
2019-02-14T08:39:24.099Z,7.10
2019-02-14T08:41:50.674Z,11.07
2019-02-14T08:44:17.436Z,7.33
2019-02-14T08:46:43.965Z,7.30
2019-02-14T08:49:10.807Z,6.90
2019-02-14T08:51:37.340Z,7.20
2019-02-14T08:54:03.875Z,7.83
2019-02-14T08:56:30.716Z,6.80
2019-02-14T08:58:57.254Z,7.90
2019-02-14T09:01:23.795Z,7.90
2019-02-14T09:03:50.631Z,5.40
2019-02-14T09:06:17.165Z,7.97
2019-02-14T09:08:43.726Z,8.30
2019-02-14T09:11:10.231Z,6.87
2019-02-14T09:13:36.766Z,6.10
2019-02-14T09:16:03.609Z,7.80
2019-02-14T09:18:30.222Z,6.57
2019-02-14T09:20:56.983Z,6.37
2019-02-14T09:23:23.519Z,7.00
2019-02-14T09:25:50.364Z,13.77
2019-02-14T09:28:17.204Z,14.20
2019-02-14T09:30:43.739Z,6.87
2019-02-14T09:33:10.371Z,8.10
2019-02-14T09:35:37.002Z,7.93
2019-02-14T09:38:03.847Z,9.83
2019-02-14T09:40:31.122Z,11.13
2019-02-14T09:42:57.636Z,8.13
2019-02-14T09:45:24.171Z,7.10
2019-02-14T09:47:51.012Z,8.20
2019-02-14T09:50:17.548Z,6.90
2019-02-14T09:52:44.416Z,8.37
2019-02-14T09:55:10.931Z,7.23
2019-02-14T09:57:37.785Z,5.33
2019-02-14T10:00:04.299Z,7.77
2019-02-14T10:02:30.810Z,8.40
2019-02-14T10:04:57.364Z,4.67
2019-02-14T10:07:24.222Z,6.97
2019-02-14T10:09:50.745Z,4.97
2019-02-14T10:12:17.291Z,5.90
2019-02-14T10:14:43.815Z,4.63
2019-02-14T10:17:10.349Z,6.13
2019-02-14T10:19:37.193Z,5.10
2019-02-14T10:22:03.725Z,5.43
2019-02-14T10:24:30.261Z,5.30
2019-02-14T10:26:56.795Z,4.53
2019-02-14T10:29:23.774Z,4.80
2019-02-14T10:31:50.479Z,5.07
2019-02-14T10:34:17.012Z,4.67
2019-02-14T10:36:43.549Z,5.67
2019-02-14T10:39:10.084Z,7.97
2019-02-14T10:41:36.615Z,6.10
2019-02-14T10:44:03.455Z,5.47
2019-02-14T10:46:30.296Z,4.83
2019-02-14T10:48:56.838Z,4.70
2019-02-14T10:51:23.674Z,5.03
2019-02-14T10:53:50.209Z,7.07
2019-02-14T10:56:17.053Z,4.27
2019-02-14T10:58:43.583Z,7.00
2019-02-14T11:01:10.427Z,5.53
2019-02-14T11:03:36.959Z,4.07
2019-02-14T11:06:03.499Z,3.67
2019-02-14T11:08:31.959Z,4.13
2019-02-14T11:10:58.406Z,4.60
2019-02-14T11:13:24.954Z,3.90
2019-02-14T11:15:51.474Z,4.17
2019-02-14T11:18:18.010Z,5.63
2019-02-14T11:20:44.853Z,4.30
2019-02-14T11:23:11.365Z,4.27
2019-02-14T11:25:38.232Z,6.63
2019-02-14T11:28:05.117Z,4.00
2019-02-14T11:30:31.683Z,3.73
2019-02-14T11:32:58.444Z,4.43
2019-02-14T11:35:24.980Z,3.60
2019-02-14T11:37:51.490Z,3.73
2019-02-14T11:40:18.078Z,6.07
2019-02-14T11:42:44.584Z,5.37
2019-02-14T11:45:11.129Z,5.40
2019-02-14T11:47:37.658Z,2.53
2019-02-14T11:50:06.474Z,4.13
2019-02-14T11:52:32.565Z,4.73
2019-02-14T11:54:59.098Z,5.20
2019-02-14T11:57:25.940Z,4.43
2019-02-14T11:59:52.474Z,4.87
2019-02-14T12:02:19.015Z,3.30
2019-02-14T12:04:45.542Z,3.63
2019-02-14T12:07:12.180Z,4.73
2019-02-14T12:09:38.919Z,5.80
2019-02-14T12:12:05.472Z,3.80
2019-02-14T12:14:31.991Z,3.83
2019-02-14T12:16:58.833Z,5.03
2019-02-14T12:19:25.367Z,4.20
2019-02-14T12:21:51.902Z,3.77
2019-02-14T12:24:18.444Z,4.10
2019-02-14T12:26:45.274Z,3.87
2019-02-14T12:29:11.808Z,6.33
2019-02-14T12:31:38.351Z,3.37
2019-02-14T12:34:04.969Z,3.97
2019-02-14T12:36:31.725Z,5.23
2019-02-14T12:38:58.565Z,5.57
2019-02-14T12:41:25.099Z,2.97
2019-02-14T12:43:51.633Z,3.23
2019-02-14T12:46:18.474Z,3.60
2019-02-14T12:48:45.011Z,4.33
2019-02-14T12:51:11.848Z,4.83
2019-02-14T12:53:38.361Z,3.50
2019-02-14T12:56:04.939Z,3.63
2019-02-14T12:58:31.760Z,3.90
2019-02-14T13:00:58.293Z,5.43
2019-02-14T13:03:24.829Z,2.90
2019-02-14T13:05:51.365Z,3.83
2019-02-14T13:08:17.904Z,4.37
2019-02-14T13:10:44.741Z,4.77
2019-02-14T13:13:11.273Z,4.20
2019-02-14T13:15:37.809Z,5.50
2019-02-14T13:18:04.342Z,3.77
2019-02-14T13:20:30.879Z,3.03
2019-02-14T13:22:57.722Z,2.70
2019-02-14T13:25:24.254Z,3.37
2019-02-14T13:27:50.801Z,3.50
2019-02-14T13:30:17.628Z,3.87
2019-02-14T13:32:44.163Z,4.00
2019-02-14T13:35:11.011Z,3.50
2019-02-14T13:37:37.539Z,4.70
2019-02-14T13:40:04.384Z,4.63
2019-02-14T13:42:30.919Z,4.37
2019-02-14T13:44:57.458Z,4.03
2019-02-14T13:47:24.290Z,4.13
2019-02-14T13:49:51.133Z,4.87
2019-02-14T13:52:17.670Z,4.90
2019-02-14T13:54:44.511Z,4.53
2019-02-14T13:57:11.043Z,5.30
2019-02-14T13:59:38.210Z,7.03
2019-02-14T14:02:04.733Z,6.30
2019-02-14T14:04:31.261Z,11.23
2019-02-14T14:06:58.107Z,23.57
2019-02-14T14:09:24.654Z,12.70
2019-02-14T14:11:51.478Z,19.33
2019-02-14T14:14:18.325Z,10.90
2019-02-14T14:16:44.854Z,8.80
2019-02-14T14:19:11.393Z,7.77
2019-02-14T14:21:37.929Z,8.17
2019-02-14T14:24:04.768Z,7.47
2019-02-14T14:26:31.344Z,5.77
2019-02-14T14:28:58.143Z,10.17
2019-02-14T14:31:24.675Z,7.20
2019-02-14T14:33:51.215Z,10.83
2019-02-14T14:36:18.050Z,9.03
2019-02-14T14:38:44.859Z,18.57
2019-02-14T14:41:11.431Z,11.17
2019-02-14T14:43:37.962Z,12.27
2019-02-14T14:46:04.804Z,12.27
2019-02-14T14:48:31.957Z,11.70
2019-02-14T14:50:58.490Z,11.03
2019-02-14T14:53:25.022Z,10.17
2019-02-14T14:55:51.560Z,10.73
2019-02-14T14:58:18.098Z,11.77
2019-02-14T15:00:44.731Z,10.83
2019-02-14T15:03:11.350Z,6.60
2019-02-14T15:05:38.005Z,8.67
2019-02-14T15:08:08.840Z,10.13
2019-02-14T15:10:35.677Z,13.73
2019-02-14T15:13:02.520Z,6.53
2019-02-14T15:15:29.063Z,12.97
2019-02-14T15:17:55.593Z,9.90
2019-02-14T15:20:22.226Z,6.40
2019-02-14T15:22:48.974Z,5.67
2019-02-14T15:25:15.806Z,6.83
2019-02-14T15:27:42.698Z,8.30
2019-02-14T15:30:09.493Z,9.63
2019-02-14T15:32:36.024Z,9.03
2019-02-14T15:35:02.865Z,8.97
2019-02-14T15:37:29.497Z,8.63
2019-02-14T15:39:56.248Z,8.50
2019-02-14T15:42:22.777Z,9.00
2019-02-14T15:44:49.404Z,8.03
2019-02-14T15:47:16.155Z,10.63
2019-02-14T15:49:44.635Z,7.07
2019-02-14T15:52:11.064Z,7.33
2019-02-14T15:54:37.601Z,8.43
2019-02-14T15:57:04.145Z,8.33
2019-02-14T15:59:30.670Z,7.80
2019-02-14T16:01:57.298Z,8.30
2019-02-14T16:04:24.033Z,10.10
2019-02-14T16:06:52.254Z,14.27
2019-02-14T16:09:18.960Z,11.43
2019-02-14T16:11:45.494Z,14.50
2019-02-14T16:14:12.332Z,12.43
2019-02-14T16:16:38.868Z,21.17
2019-02-14T16:19:05.448Z,15.17
2019-02-14T16:21:32.260Z,10.17
2019-02-14T16:23:59.086Z,14.77
2019-02-14T16:26:25.926Z,12.20
2019-02-14T16:28:52.463Z,9.70
2019-02-14T16:31:19.308Z,14.57
2019-02-14T16:33:45.847Z,10.50
2019-02-14T16:36:12.377Z,11.27
2019-02-14T16:38:39.213Z,15.57
2019-02-14T16:41:06.035Z,13.30
2019-02-14T16:43:32.590Z,11.53
2019-02-14T16:45:59.123Z,9.83
2019-02-14T16:48:25.965Z,13.13
2019-02-14T16:50:52.879Z,11.80
2019-02-14T16:53:19.648Z,11.50
2019-02-14T16:55:46.490Z,11.80
2019-02-14T16:58:13.034Z,13.20
2019-02-14T17:00:39.565Z,10.13
2019-02-14T17:03:07.976Z,10.53
2019-02-14T17:05:35.699Z,13.33
2019-02-14T17:08:02.233Z,13.03
2019-02-14T17:10:36.576Z,10.03
2019-02-14T17:12:57.150Z,14.83
2019-02-14T17:15:23.766Z,21.10
2019-02-14T17:17:50.527Z,13.40
2019-02-14T17:20:17.063Z,14.93
2019-02-14T17:22:43.591Z,13.07
2019-02-14T17:25:10.213Z,13.10
2019-02-14T17:27:37.274Z,13.23
2019-02-14T17:30:04.512Z,13.17
2019-02-14T17:32:31.281Z,15.97
2019-02-14T17:34:57.807Z,18.03
2019-02-14T17:37:24.335Z,19.30
2019-02-14T17:39:50.870Z,13.80
2019-02-14T17:42:17.409Z,14.60
2019-02-14T17:44:44.254Z,18.87
2019-02-14T17:47:10.783Z,23.53
2019-02-14T17:49:37.321Z,22.23
2019-02-14T17:52:03.955Z,28.23
2019-02-14T17:54:30.698Z,25.20
2019-02-14T17:56:57.229Z,22.10
2019-02-14T17:59:24.160Z,35.60
2019-02-14T18:01:51.215Z,22.60
2019-02-14T18:04:18.366Z,21.67
2019-02-14T18:06:44.898Z,25.07
2019-02-14T18:09:11.438Z,22.30
2019-02-14T18:11:37.975Z,19.70
2019-02-14T18:14:05.121Z,29.20
2019-02-14T18:16:31.962Z,27.43
2019-02-14T18:18:58.838Z,23.40
2019-02-14T18:21:25.643Z,21.53
2019-02-14T18:23:52.186Z,24.60
2019-02-14T18:26:19.018Z,22.03
2019-02-14T18:28:45.865Z,27.53
2019-02-14T18:31:12.403Z,19.77
2019-02-14T18:33:39.021Z,22.57
2019-02-14T18:36:05.776Z,22.10
2019-02-14T18:38:32.318Z,24.80
2019-02-14T18:41:04.108Z,22.73
2019-02-14T18:43:27.522Z,22.70
2019-02-14T18:45:54.064Z,22.07
2019-02-14T18:48:21.104Z,21.10
2019-02-14T18:50:47.743Z,20.87
2019-02-14T18:53:14.583Z,21.60
2019-02-14T18:55:41.436Z,22.73
2019-02-14T18:58:07.965Z,20.87
2019-02-14T19:00:34.495Z,22.50
2019-02-14T19:03:01.334Z,20.83
2019-02-14T19:05:28.190Z,23.43
2019-02-14T19:07:54.710Z,21.93
2019-02-14T19:10:21.248Z,22.73
2019-02-14T19:12:47.789Z,21.07
2019-02-14T19:15:14.313Z,26.23
2019-02-14T19:17:41.158Z,22.03
2019-02-14T19:20:07.705Z,21.40
2019-02-14T19:22:34.237Z,22.73
2019-02-14T19:25:00.763Z,21.63
2019-02-14T19:27:27.318Z,21.13
2019-02-14T19:29:54.137Z,20.80
2019-02-14T19:32:20.675Z,20.77
2019-02-14T19:34:47.210Z,30.60
2019-02-14T19:37:13.738Z,21.70
2019-02-14T19:39:40.282Z,23.27
2019-02-14T19:42:07.122Z,24.90
2019-02-14T19:44:33.653Z,20.13
2019-02-14T19:47:00.183Z,22.97
2019-02-14T19:49:26.724Z,19.47
2019-02-14T19:51:53.261Z,20.63
2019-02-14T19:54:20.097Z,21.90
2019-02-14T19:56:46.639Z,20.63
2019-02-14T19:59:13.177Z,20.83
2019-02-14T20:01:39.992Z,22.57
2019-02-14T20:04:06.543Z,21.27
2019-02-14T20:06:33.424Z,23.47
2019-02-14T20:09:00.222Z,23.00
2019-02-14T20:11:36.289Z,21.93
2019-02-14T20:13:55.139Z,22.83
2019-02-14T20:16:21.671Z,23.73
2019-02-14T20:18:48.202Z,25.57
2019-02-14T20:21:14.749Z,25.33
2019-02-14T20:23:41.276Z,21.47
2019-02-14T20:26:08.114Z,21.50
2019-02-14T20:28:34.649Z,24.57
2019-02-14T20:31:01.493Z,21.53
2019-02-14T20:33:28.333Z,20.47
2019-02-14T20:35:54.868Z,21.90
2019-02-14T20:38:21.401Z,23.50
2019-02-14T20:40:47.941Z,21.60
2019-02-14T20:43:14.779Z,22.17
2019-02-14T20:45:41.315Z,20.87
2019-02-14T20:48:07.855Z,20.50
2019-02-14T20:50:34.393Z,20.03
2019-02-14T20:53:00.919Z,18.87
2019-02-14T20:55:27.758Z,20.60
2019-02-14T20:57:54.295Z,20.93
2019-02-14T21:00:21.144Z,21.90
2019-02-14T21:02:47.669Z,22.43
2019-02-14T21:05:14.202Z,20.50
2019-02-14T21:07:41.047Z,20.73
2019-02-14T21:10:07.582Z,21.83
2019-02-14T21:12:34.421Z,20.00
2019-02-14T21:15:00.958Z,20.77
2019-02-14T21:17:27.800Z,21.37
2019-02-14T21:19:54.640Z,20.60
2019-02-14T21:22:21.484Z,21.60
2019-02-14T21:24:48.027Z,21.07
2019-02-14T21:27:14.551Z,20.63
2019-02-14T21:29:41.396Z,21.23
2019-02-14T21:32:08.361Z,21.63
2019-02-14T21:34:35.400Z,20.57
2019-02-14T21:37:02.224Z,31.90
2019-02-14T21:39:28.762Z,25.97
2019-02-14T21:42:17.545Z,24.97
2019-02-14T21:44:23.672Z,24.03
2019-02-14T21:46:50.221Z,25.60
2019-02-14T21:49:16.751Z,25.37
2019-02-14T21:51:43.580Z,20.53
2019-02-14T21:54:10.123Z,26.30
2019-02-14T21:56:36.964Z,24.27
2019-02-14T21:59:03.520Z,25.20
2019-02-14T22:01:30.342Z,26.60
2019-02-14T22:03:57.815Z,22.13
2019-02-14T22:06:24.645Z,26.43
2019-02-14T22:08:51.600Z,30.70
2019-02-14T22:11:18.326Z,22.47
2019-02-14T22:13:44.913Z,25.70
2019-02-14T22:16:11.776Z,25.13
2019-02-14T22:18:38.535Z,21.60
2019-02-14T22:21:05.449Z,20.17
2019-02-14T22:23:32.221Z,20.07
2019-02-14T22:25:58.752Z,21.20
2019-02-14T22:28:25.612Z,28.90
2019-02-14T22:30:52.455Z,30.43
2019-02-14T22:33:19.274Z,28.37
2019-02-14T22:35:45.856Z,21.87
2019-02-14T22:38:12.673Z,23.70
2019-02-14T22:40:39.186Z,23.10
2019-02-14T22:43:05.718Z,26.40
2019-02-14T22:45:32.560Z,34.63
2019-02-14T22:47:59.623Z,34.50
2019-02-14T22:50:26.243Z,32.00
2019-02-14T22:52:53.047Z,24.60
2019-02-14T22:55:19.621Z,27.07
2019-02-14T22:57:46.156Z,20.87
2019-02-14T23:00:12.997Z,21.23
2019-02-14T23:02:39.531Z,23.23
2019-02-14T23:05:06.371Z,20.90
2019-02-14T23:07:32.910Z,23.13
2019-02-14T23:09:59.748Z,27.00
2019-02-14T23:12:26.593Z,19.97
2019-02-14T23:14:53.436Z,19.83
2019-02-14T23:17:19.968Z,24.47
2019-02-14T23:19:46.512Z,22.53
2019-02-14T23:22:13.342Z,19.80
2019-02-14T23:24:39.876Z,20.87
2019-02-14T23:27:06.721Z,20.63
2019-02-14T23:29:33.256Z,18.13
2019-02-14T23:31:59.791Z,19.80
2019-02-14T23:34:26.632Z,18.83
2019-02-14T23:36:53.164Z,17.20
2019-02-14T23:39:20.005Z,19.93
2019-02-14T23:41:46.551Z,17.50
2019-02-14T23:44:13.381Z,16.17
2019-02-14T23:46:40.228Z,18.03
2019-02-14T23:49:06.756Z,18.03
2019-02-14T23:51:33.683Z,16.90
2019-02-14T23:54:00.440Z,17.10
2019-02-14T23:56:27.282Z,15.97
2019-02-14T23:58:54.130Z,16.13
